createdAt,value
2019-03-06T00:01:26.865Z,16.97
2019-03-06T00:03:56.677Z,15.13
2019-03-06T00:06:26.443Z,16.60
2019-03-06T00:08:56.233Z,18.50
2019-03-06T00:11:25.900Z,16.00
2019-03-06T00:13:55.735Z,17.03
2019-03-06T00:16:25.491Z,17.47
2019-03-06T00:18:55.108Z,16.03
2019-03-06T00:21:24.824Z,16.90
2019-03-06T00:23:54.662Z,18.70
2019-03-06T00:26:24.408Z,14.97
2019-03-06T00:28:54.179Z,18.27
2019-03-06T00:31:23.924Z,17.03
2019-03-06T00:33:53.833Z,16.57
2019-03-06T00:36:24.948Z,15.17
2019-03-06T00:38:54.582Z,15.43
2019-03-06T00:41:29.190Z,13.30
2019-03-06T00:43:59.255Z,18.17
2019-03-06T00:46:29.167Z,15.03
2019-03-06T00:48:58.798Z,12.70
2019-03-06T00:51:28.476Z,21.57
2019-03-06T00:53:58.143Z,16.33
2019-03-06T00:56:28.391Z,14.40
2019-03-06T00:58:58.103Z,13.50
2019-03-06T01:01:27.859Z,12.77
2019-03-06T01:03:57.530Z,16.30
2019-03-06T01:06:27.778Z,13.23
2019-03-06T01:08:57.525Z,17.07
2019-03-06T01:11:27.297Z,11.93
2019-03-06T01:13:57.121Z,13.90
2019-03-06T01:16:26.762Z,14.37
2019-03-06T01:18:56.853Z,14.33
2019-03-06T01:21:26.592Z,13.43
2019-03-06T01:23:56.512Z,14.80
2019-03-06T01:26:26.147Z,12.53
2019-03-06T01:28:55.911Z,14.63
2019-03-06T01:31:25.546Z,16.43
2019-03-06T01:34:12.996Z,14.80
2019-03-06T01:36:53.758Z,14.60
2019-03-06T01:39:35.931Z,16.07
2019-03-06T01:42:16.779Z,12.97
2019-03-06T01:44:56.151Z,13.80
2019-03-06T01:47:25.925Z,14.17
2019-03-06T01:49:55.700Z,14.40
2019-03-06T01:52:25.430Z,13.43
2019-03-06T01:54:55.108Z,14.13
2019-03-06T01:57:24.855Z,16.07
2019-03-06T01:59:54.637Z,14.67
2019-03-06T02:02:24.361Z,11.17
2019-03-06T02:04:54.388Z,14.30
2019-03-06T02:07:24.526Z,14.17
2019-03-06T02:09:54.333Z,15.67
2019-03-06T02:12:24.001Z,17.37
2019-03-06T02:14:54.750Z,14.00
2019-03-06T02:17:24.478Z,16.00
2019-03-06T02:19:54.220Z,14.47
2019-03-06T02:22:23.926Z,13.40
2019-03-06T02:24:53.702Z,15.60
2019-03-06T02:27:23.306Z,15.93
2019-03-06T02:29:52.914Z,13.50
2019-03-06T02:32:22.599Z,16.70
2019-03-06T02:34:52.320Z,20.10
2019-03-06T02:37:22.014Z,14.70
2019-03-06T02:39:51.743Z,12.20
2019-03-06T02:42:21.375Z,15.37
2019-03-06T02:44:51.121Z,13.80
2019-03-06T02:47:20.787Z,15.37
2019-03-06T02:49:50.443Z,16.70
2019-03-06T02:52:20.175Z,15.83
2019-03-06T02:54:49.892Z,19.13
2019-03-06T02:57:19.609Z,15.93
2019-03-06T03:00:04.436Z,15.30
2019-03-06T03:03:02.890Z,15.97
2019-03-06T03:05:46.951Z,10.93
2019-03-06T03:08:16.645Z,14.43
2019-03-06T03:10:46.563Z,15.47
2019-03-06T03:13:16.201Z,16.33
2019-03-06T03:15:45.991Z,12.93
2019-03-06T03:18:16.650Z,13.77
2019-03-06T03:20:46.381Z,17.20
2019-03-06T03:23:16.218Z,14.67
2019-03-06T03:25:46.002Z,16.53
2019-03-06T03:28:15.654Z,14.83
2019-03-06T03:30:45.499Z,14.40
2019-03-06T03:33:15.189Z,17.03
2019-03-06T03:35:44.904Z,14.40
2019-03-06T03:38:14.552Z,18.70
2019-03-06T03:40:44.199Z,22.43
2019-03-06T03:43:13.917Z,17.93
2019-03-06T03:45:43.639Z,21.20
2019-03-06T03:48:13.267Z,19.77
2019-03-06T03:50:43.020Z,18.20
2019-03-06T03:53:12.721Z,17.73
2019-03-06T03:55:43.424Z,21.43
2019-03-06T03:58:13.124Z,16.87
2019-03-06T04:00:42.722Z,19.13
2019-03-06T04:03:13.040Z,20.37
2019-03-06T04:05:42.692Z,24.50
2019-03-06T04:08:12.413Z,17.37
2019-03-06T04:10:42.101Z,24.73
2019-03-06T04:13:11.773Z,17.83
2019-03-06T04:15:41.664Z,20.77
2019-03-06T04:18:11.394Z,19.40
2019-03-06T04:20:41.205Z,23.23
2019-03-06T04:23:10.884Z,16.77
2019-03-06T04:25:40.486Z,22.70
2019-03-06T04:28:10.211Z,23.97
2019-03-06T04:30:39.912Z,29.13
2019-03-06T04:33:09.637Z,24.90
2019-03-06T04:35:39.337Z,27.77
2019-03-06T04:38:09.088Z,22.47
2019-03-06T04:40:38.797Z,28.17
2019-03-06T04:43:08.446Z,28.90
2019-03-06T04:45:38.089Z,25.03
2019-03-06T04:48:07.801Z,25.07
2019-03-06T04:50:37.475Z,23.37
2019-03-06T04:53:07.288Z,24.93
2019-03-06T04:55:36.991Z,23.63
2019-03-06T04:58:06.677Z,26.23
2019-03-06T05:00:36.551Z,28.10
2019-03-06T05:03:06.247Z,26.83
2019-03-06T05:05:35.978Z,23.23
2019-03-06T05:08:05.763Z,24.63
2019-03-06T05:10:36.014Z,22.73
2019-03-06T05:13:05.867Z,24.03
2019-03-06T05:15:35.614Z,22.93
2019-03-06T05:18:14.822Z,21.10
2019-03-06T05:20:44.436Z,22.13
2019-03-06T05:23:14.494Z,19.70
2019-03-06T05:25:44.129Z,17.50
2019-03-06T05:28:13.756Z,23.57
2019-03-06T05:30:43.366Z,19.40
2019-03-06T05:33:13.666Z,19.10
2019-03-06T05:36:10.387Z,24.40
2019-03-06T05:39:01.849Z,22.27
2019-03-06T05:41:33.094Z,28.10
2019-03-06T05:44:02.733Z,20.00
2019-03-06T05:46:32.375Z,25.17
2019-03-06T05:49:02.056Z,21.03
2019-03-06T05:51:31.855Z,23.67
2019-03-06T05:54:01.610Z,27.43
2019-03-06T05:56:31.282Z,21.33
2019-03-06T05:59:02.035Z,26.53
2019-03-06T06:01:32.110Z,23.57
2019-03-06T06:04:01.789Z,23.33
2019-03-06T06:06:31.515Z,22.20
2019-03-06T06:09:01.248Z,22.07
2019-03-06T06:11:32.601Z,26.87
2019-03-06T06:14:02.274Z,19.57
2019-03-06T06:16:32.070Z,22.93
2019-03-06T06:19:01.899Z,23.30
2019-03-06T06:21:44.975Z,25.60
2019-03-06T06:24:18.894Z,24.30
2019-03-06T06:26:48.633Z,22.40
2019-03-06T06:29:18.307Z,25.00
2019-03-06T06:31:48.101Z,27.70
2019-03-06T06:34:17.934Z,24.23
2019-03-06T06:36:47.575Z,29.90
2019-03-06T06:39:18.175Z,20.93
2019-03-06T06:41:47.911Z,19.90
2019-03-06T06:44:17.664Z,27.63
2019-03-06T06:46:47.302Z,21.93
2019-03-06T06:49:16.910Z,22.97
2019-03-06T06:52:20.580Z,26.20
2019-03-06T06:55:28.406Z,25.93
2019-03-06T06:58:38.831Z,22.97
2019-03-06T07:01:57.501Z,21.20
2019-03-06T07:04:43.951Z,17.93
2019-03-06T07:07:29.395Z,24.10
2019-03-06T07:10:08.213Z,21.57
2019-03-06T07:12:45.134Z,24.43
2019-03-06T07:15:52.477Z,22.03
2019-03-06T07:18:40.653Z,27.20
2019-03-06T07:21:17.614Z,26.27
2019-03-06T07:23:57.927Z,20.70
2019-03-06T07:26:42.714Z,26.10
2019-03-06T07:29:22.000Z,18.03
2019-03-06T07:32:03.895Z,27.60
2019-03-06T07:34:48.845Z,24.50
2019-03-06T07:37:37.674Z,23.67
2019-03-06T07:40:17.692Z,27.00
2019-03-06T07:43:06.588Z,25.67
2019-03-06T07:46:09.664Z,22.63
2019-03-06T07:48:52.385Z,22.77
2019-03-06T07:51:26.752Z,22.30
2019-03-06T07:54:10.935Z,22.10
2019-03-06T07:56:44.531Z,18.53
2019-03-06T07:59:14.220Z,23.07
2019-03-06T08:01:47.599Z,24.40
2019-03-06T08:04:17.893Z,24.93
2019-03-06T08:06:57.478Z,18.20
2019-03-06T08:09:27.226Z,23.23
2019-03-06T08:12:15.934Z,22.00
2019-03-06T08:15:20.266Z,22.93
2019-03-06T08:18:17.948Z,18.80
2019-03-06T08:20:57.177Z,23.77
2019-03-06T08:23:32.164Z,19.10
2019-03-06T08:26:01.704Z,18.40
2019-03-06T08:28:31.362Z,22.83
2019-03-06T08:31:09.606Z,21.67
2019-03-06T08:33:39.236Z,18.00
2019-03-06T08:36:08.801Z,17.33
2019-03-06T08:38:38.422Z,18.90
2019-03-06T08:41:07.988Z,20.57
2019-03-06T08:43:37.764Z,17.97
2019-03-06T08:46:29.533Z,18.57
2019-03-06T08:49:17.238Z,15.97
2019-03-06T08:52:02.923Z,16.60
2019-03-06T08:54:42.164Z,14.87
2019-03-06T08:57:29.958Z,16.60
2019-03-06T09:00:20.188Z,11.77
2019-03-06T09:03:16.672Z,12.77
2019-03-06T09:06:02.332Z,17.70
2019-03-06T09:09:03.413Z,14.63
2019-03-06T09:11:52.637Z,15.80
2019-03-06T09:14:56.730Z,18.23
2019-03-06T09:17:35.548Z,14.87
2019-03-06T09:20:24.545Z,14.00
2019-03-06T09:23:31.719Z,10.93
2019-03-06T09:26:10.840Z,14.57
2019-03-06T09:29:01.346Z,15.10
2019-03-06T09:31:46.532Z,14.53
2019-03-06T09:34:37.689Z,13.83
2019-03-06T09:37:25.382Z,14.17
2019-03-06T09:40:06.176Z,13.83
2019-03-06T09:43:07.002Z,11.83
2019-03-06T09:45:54.585Z,14.50
2019-03-06T09:48:58.297Z,17.27
2019-03-06T09:51:51.820Z,13.73
2019-03-06T09:54:34.165Z,14.40
2019-03-06T09:57:35.153Z,10.70
2019-03-06T10:00:24.204Z,14.47
2019-03-06T10:03:15.691Z,11.40
2019-03-06T10:06:01.808Z,9.67
2019-03-06T10:08:38.223Z,10.50
2019-03-06T10:11:17.232Z,8.60
2019-03-06T10:14:00.578Z,12.10
2019-03-06T10:16:52.006Z,11.30
2019-03-06T10:19:31.469Z,17.73
2019-03-06T10:22:01.109Z,16.13
2019-03-06T10:24:30.758Z,11.80
2019-03-06T10:27:00.397Z,12.20
2019-03-06T10:29:30.125Z,11.47
2019-03-06T10:31:59.882Z,9.90
2019-03-06T10:34:29.616Z,18.50
2019-03-06T10:36:59.316Z,9.83
2019-03-06T10:39:29.685Z,12.30
2019-03-06T10:42:00.301Z,7.93
2019-03-06T10:44:30.136Z,11.87
2019-03-06T10:46:59.811Z,12.87
2019-03-06T10:49:29.858Z,13.13
2019-03-06T10:51:59.589Z,12.77
2019-03-06T10:54:29.309Z,15.30
2019-03-06T10:57:01.312Z,11.60
2019-03-06T10:59:31.136Z,9.80
2019-03-06T11:02:00.756Z,9.73
2019-03-06T11:04:44.919Z,8.43
2019-03-06T11:07:15.185Z,10.17
2019-03-06T11:09:45.064Z,10.47
2019-03-06T11:12:14.792Z,13.80
2019-03-06T11:14:47.678Z,7.07
2019-03-06T11:17:18.680Z,9.27
2019-03-06T11:19:48.812Z,7.50
2019-03-06T11:22:19.897Z,8.77
2019-03-06T11:24:51.612Z,10.27
2019-03-06T11:27:22.412Z,8.03
2019-03-06T11:29:52.090Z,7.87
2019-03-06T11:32:22.068Z,11.10
2019-03-06T11:34:52.895Z,8.17
2019-03-06T11:37:23.119Z,6.67
2019-03-06T11:39:53.005Z,9.10
2019-03-06T11:42:23.301Z,9.70
2019-03-06T11:44:53.067Z,5.80
2019-03-06T11:47:23.041Z,7.97
2019-03-06T11:49:54.730Z,7.63
2019-03-06T11:52:24.930Z,10.17
2019-03-06T11:54:54.891Z,9.67
2019-03-06T11:57:24.697Z,6.70
2019-03-06T11:59:54.749Z,7.47
2019-03-06T12:02:25.894Z,10.60
2019-03-06T12:04:58.101Z,4.93
2019-03-06T12:07:31.571Z,6.30
2019-03-06T12:10:10.525Z,5.93
2019-03-06T12:12:42.528Z,7.67
2019-03-06T12:15:15.529Z,9.10
2019-03-06T12:17:45.427Z,8.13
2019-03-06T12:20:15.421Z,6.63
2019-03-06T12:23:00.006Z,9.83
2019-03-06T12:25:31.811Z,8.63
2019-03-06T12:28:04.270Z,5.63
2019-03-06T12:30:34.162Z,6.83
2019-03-06T12:33:03.981Z,3.43
2019-03-06T12:35:34.083Z,3.00
2019-03-06T12:38:03.884Z,3.93
2019-03-06T12:40:34.896Z,7.13
2019-03-06T12:43:05.951Z,3.23
2019-03-06T12:45:35.800Z,4.13
2019-03-06T12:48:07.641Z,3.33
2019-03-06T12:50:38.877Z,3.73
2019-03-06T12:53:09.430Z,6.50
2019-03-06T12:55:39.835Z,2.70
2019-03-06T12:58:09.568Z,4.47
2019-03-06T13:00:39.548Z,3.40
2019-03-06T13:03:09.374Z,6.33
2019-03-06T13:05:39.167Z,5.13
2019-03-06T13:08:19.536Z,4.93
2019-03-06T13:10:42.453Z,3.57
2019-03-06T13:13:12.321Z,5.13
2019-03-06T13:15:42.206Z,4.37
2019-03-06T13:18:13.230Z,6.27
2019-03-06T13:20:43.167Z,4.97
2019-03-06T13:23:13.195Z,6.43
2019-03-06T13:25:42.993Z,8.10
2019-03-06T13:28:13.838Z,3.77
2019-03-06T13:30:43.473Z,4.80
2019-03-06T13:33:23.051Z,2.57
2019-03-06T13:35:53.213Z,5.27
2019-03-06T13:38:24.739Z,4.30
2019-03-06T13:40:56.092Z,7.03
2019-03-06T13:43:25.960Z,4.10
2019-03-06T13:45:55.949Z,5.70
2019-03-06T13:48:29.081Z,4.53
2019-03-06T13:50:59.598Z,5.97
2019-03-06T13:53:30.628Z,5.70
2019-03-06T13:56:01.577Z,8.60
2019-03-06T13:58:32.844Z,3.53
2019-03-06T14:01:03.259Z,5.30
2019-03-06T14:03:33.030Z,5.97
2019-03-06T14:06:03.095Z,5.00
2019-03-06T14:08:32.918Z,4.97
2019-03-06T14:11:05.461Z,3.70
2019-03-06T14:13:36.533Z,5.73
2019-03-06T14:16:08.022Z,2.67
2019-03-06T14:18:38.309Z,3.70
2019-03-06T14:21:12.441Z,4.00
2019-03-06T14:23:42.504Z,5.37
2019-03-06T14:26:12.444Z,3.30
2019-03-06T14:28:42.072Z,6.43
2019-03-06T14:31:15.863Z,3.20
2019-03-06T14:33:46.537Z,4.17
2019-03-06T14:36:16.737Z,4.67
2019-03-06T14:38:47.656Z,5.73
2019-03-06T14:41:17.373Z,3.37
2019-03-06T14:43:48.101Z,2.43
2019-03-06T14:46:20.177Z,3.20
2019-03-06T14:48:53.107Z,3.17
2019-03-06T14:51:23.095Z,3.03
2019-03-06T14:53:52.925Z,3.60
2019-03-06T14:56:22.963Z,2.67
2019-03-06T14:58:52.793Z,5.27
2019-03-06T15:01:22.525Z,3.87
2019-03-06T15:03:52.213Z,5.37
2019-03-06T15:06:33.042Z,5.10
2019-03-06T15:09:14.211Z,5.03
2019-03-06T15:11:44.991Z,3.90
2019-03-06T15:14:15.307Z,3.97
2019-03-06T15:16:45.180Z,3.60
2019-03-06T15:19:16.262Z,8.23
2019-03-06T15:21:45.988Z,6.73
2019-03-06T15:24:16.039Z,4.77
2019-03-06T15:26:45.878Z,3.30
2019-03-06T15:29:17.356Z,4.27
2019-03-06T15:31:48.188Z,4.57
2019-03-06T15:34:22.855Z,4.37
2019-03-06T15:36:52.718Z,4.80
2019-03-06T15:39:42.195Z,5.07
2019-03-06T15:42:11.586Z,6.63
2019-03-06T15:44:41.538Z,8.10
2019-03-06T15:47:11.332Z,6.40
2019-03-06T15:49:43.011Z,7.80
2019-03-06T15:52:12.809Z,7.07
2019-03-06T15:54:42.472Z,9.60
2019-03-06T15:57:12.145Z,6.57
2019-03-06T15:59:42.165Z,9.97
2019-03-06T16:02:12.104Z,8.50
2019-03-06T16:04:41.951Z,6.77
2019-03-06T16:07:11.586Z,6.90
2019-03-06T16:09:41.807Z,6.37
2019-03-06T16:12:12.385Z,7.13
2019-03-06T16:14:43.143Z,6.80
2019-03-06T16:17:12.885Z,7.50
2019-03-06T16:19:42.503Z,7.93
2019-03-06T16:22:13.020Z,7.57
2019-03-06T16:24:44.062Z,7.10
2019-03-06T16:27:13.736Z,9.13
2019-03-06T16:29:43.729Z,8.37
2019-03-06T16:32:13.617Z,8.00
2019-03-06T16:34:45.605Z,8.20
2019-03-06T16:37:15.356Z,7.97
2019-03-06T16:39:45.087Z,10.93
2019-03-06T16:42:14.869Z,11.17
2019-03-06T16:44:44.681Z,12.17
2019-03-06T16:47:15.585Z,10.97
2019-03-06T16:49:45.233Z,9.37
2019-03-06T16:52:15.038Z,10.63
2019-03-06T16:54:44.696Z,12.27
2019-03-06T16:57:17.106Z,10.17
2019-03-06T16:59:47.317Z,11.83
2019-03-06T17:02:18.696Z,10.37
2019-03-06T17:04:48.465Z,12.57
2019-03-06T17:07:18.265Z,12.50
2019-03-06T17:09:48.004Z,9.73
2019-03-06T17:12:18.711Z,12.17
2019-03-06T17:14:48.693Z,15.50
2019-03-06T17:17:18.451Z,12.23
2019-03-06T17:19:48.096Z,11.57
2019-03-06T17:22:17.996Z,13.87
2019-03-06T17:24:47.705Z,9.20
2019-03-06T17:27:18.088Z,12.00
2019-03-06T17:29:47.770Z,15.37
2019-03-06T17:32:17.724Z,12.37
2019-03-06T17:34:47.400Z,9.27
2019-03-06T17:37:17.160Z,13.53
2019-03-06T17:39:47.876Z,13.63
2019-03-06T17:42:17.989Z,11.67
2019-03-06T17:44:47.752Z,10.50
2019-03-06T17:47:17.585Z,13.17
2019-03-06T17:49:47.217Z,7.87
2019-03-06T17:52:16.900Z,11.30
2019-03-06T17:54:46.563Z,8.90
2019-03-06T17:57:17.320Z,8.83
2019-03-06T17:59:46.924Z,10.00
2019-03-06T18:02:18.868Z,12.47
2019-03-06T18:04:48.492Z,11.97
2019-03-06T18:07:18.069Z,14.30
2019-03-06T18:09:47.856Z,11.30
2019-03-06T18:12:18.604Z,13.23
2019-03-06T18:14:48.257Z,12.97
2019-03-06T18:17:17.981Z,12.67
2019-03-06T18:19:47.604Z,9.00
2019-03-06T18:22:17.259Z,9.63
2019-03-06T18:24:46.845Z,8.57
2019-03-06T18:27:16.499Z,10.33
2019-03-06T18:29:46.144Z,8.23
2019-03-06T18:32:16.671Z,9.70
2019-03-06T18:34:46.307Z,11.73
2019-03-06T18:37:16.227Z,10.50
2019-03-06T18:39:45.848Z,9.60
2019-03-06T18:42:16.178Z,10.93
2019-03-06T18:44:50.488Z,7.60
2019-03-06T18:47:20.259Z,10.10
2019-03-06T18:49:49.910Z,13.97
2019-03-06T18:52:19.493Z,7.93
2019-03-06T18:54:49.333Z,8.17
2019-03-06T18:57:19.047Z,10.37
2019-03-06T18:59:48.706Z,9.17
2019-03-06T19:02:18.713Z,7.90
2019-03-06T19:04:48.273Z,9.13
2019-03-06T19:07:17.932Z,10.90
2019-03-06T19:09:47.733Z,8.30
2019-03-06T19:12:17.672Z,10.97
2019-03-06T19:14:47.401Z,7.40
2019-03-06T19:17:17.039Z,6.83
2019-03-06T19:19:47.174Z,8.30
2019-03-06T19:22:16.914Z,7.20
2019-03-06T19:24:48.570Z,6.67
2019-03-06T19:27:18.534Z,9.20
2019-03-06T19:29:49.332Z,7.67
2019-03-06T19:32:18.974Z,8.47
2019-03-06T19:34:48.658Z,6.87
2019-03-06T19:37:18.460Z,6.13
2019-03-06T19:39:48.112Z,9.17
2019-03-06T19:42:17.786Z,8.40
2019-03-06T19:44:47.411Z,7.13
2019-03-06T19:47:17.040Z,6.70
2019-03-06T19:49:46.725Z,9.73
2019-03-06T19:52:16.351Z,7.93
2019-03-06T19:54:45.937Z,7.27
2019-03-06T19:57:15.621Z,7.23
2019-03-06T19:59:46.679Z,5.37
2019-03-06T20:02:16.755Z,7.83
2019-03-06T20:04:46.340Z,6.13
2019-03-06T20:07:15.998Z,4.93
2019-03-06T20:09:45.807Z,9.47
2019-03-06T20:12:15.736Z,8.67
2019-03-06T20:14:45.437Z,6.93
2019-03-06T20:17:15.635Z,5.93
2019-03-06T20:19:45.450Z,6.20
2019-03-06T20:22:15.416Z,6.23
2019-03-06T20:24:47.819Z,7.03
2019-03-06T20:27:22.270Z,6.73
2019-03-06T20:29:52.388Z,6.73
2019-03-06T20:32:24.058Z,6.33
2019-03-06T20:34:54.447Z,6.93
2019-03-06T20:37:24.079Z,7.37
2019-03-06T20:39:54.758Z,5.77
2019-03-06T20:42:24.409Z,6.00
2019-03-06T20:44:55.350Z,6.20
2019-03-06T20:47:24.989Z,5.87
2019-03-06T20:49:55.139Z,6.33
2019-03-06T20:52:25.874Z,7.03
2019-03-06T20:54:55.500Z,7.10
2019-03-06T20:57:25.162Z,6.60
2019-03-06T20:59:54.792Z,7.00
2019-03-06T21:02:24.417Z,5.17
2019-03-06T21:04:54.537Z,6.43
2019-03-06T21:07:24.368Z,6.03
2019-03-06T21:09:54.036Z,6.33
2019-03-06T21:12:24.050Z,6.80
2019-03-06T21:14:53.724Z,5.63
2019-03-06T21:17:23.645Z,8.87
2019-03-06T21:19:53.388Z,6.07
2019-03-06T21:22:23.079Z,7.03
2019-03-06T21:24:52.828Z,6.03
2019-03-06T21:27:22.573Z,6.20
2019-03-06T21:29:52.163Z,6.90
2019-03-06T21:32:21.852Z,7.60
2019-03-06T21:34:51.558Z,4.17
2019-03-06T21:37:21.232Z,8.77
2019-03-06T21:39:56.491Z,6.00
2019-03-06T21:42:26.049Z,5.77
2019-03-06T21:44:55.688Z,6.20
2019-03-06T21:47:25.567Z,6.97
2019-03-06T21:49:55.212Z,7.97
2019-03-06T21:52:24.896Z,6.00
2019-03-06T21:54:54.603Z,5.80
2019-03-06T21:57:24.251Z,5.27
2019-03-06T21:59:53.924Z,7.60
2019-03-06T22:02:23.659Z,6.10
2019-03-06T22:04:53.243Z,6.27
2019-03-06T22:07:22.877Z,7.90
2019-03-06T22:09:52.508Z,6.97
2019-03-06T22:12:22.155Z,7.23
2019-03-06T22:14:51.797Z,9.17
2019-03-06T22:17:21.589Z,7.97
2019-03-06T22:19:51.537Z,8.43
2019-03-06T22:22:21.185Z,6.10
2019-03-06T22:24:50.844Z,5.27
2019-03-06T22:27:20.436Z,5.03
2019-03-06T22:29:50.303Z,7.27
2019-03-06T22:32:19.933Z,4.93
2019-03-06T22:34:51.954Z,6.13
2019-03-06T22:37:21.235Z,6.27
2019-03-06T22:39:50.928Z,7.07
2019-03-06T22:42:20.494Z,5.47
2019-03-06T22:44:50.548Z,6.63
2019-03-06T22:47:20.204Z,7.53
2019-03-06T22:49:50.041Z,7.30
2019-03-06T22:52:19.728Z,6.13
2019-03-06T22:54:49.378Z,5.57
2019-03-06T22:57:19.056Z,8.63
2019-03-06T22:59:48.629Z,4.30
2019-03-06T23:02:19.726Z,6.87
2019-03-06T23:04:49.377Z,5.83
2019-03-06T23:07:19.257Z,5.83
2019-03-06T23:09:49.110Z,7.83
2019-03-06T23:12:18.940Z,7.53
2019-03-06T23:14:48.520Z,8.53
2019-03-06T23:17:18.106Z,6.23
2019-03-06T23:19:47.780Z,7.27
2019-03-06T23:22:18.320Z,7.27
2019-03-06T23:24:48.829Z,6.60
2019-03-06T23:27:18.592Z,8.83
2019-03-06T23:29:48.196Z,6.00
2019-03-06T23:32:17.877Z,7.67
2019-03-06T23:34:47.542Z,7.83
2019-03-06T23:37:17.143Z,6.67
2019-03-06T23:39:46.961Z,7.27
2019-03-06T23:42:16.710Z,5.57
2019-03-06T23:44:46.327Z,6.03
2019-03-06T23:47:15.915Z,5.87
2019-03-06T23:49:45.587Z,9.87
2019-03-06T23:52:23.216Z,4.90
2019-03-06T23:54:52.914Z,6.70
2019-03-06T23:57:22.571Z,8.03
2019-03-06T23:59:52.162Z,5.37
